Arklow Rogue — EIGD — position and weather

sailwx.info

Track history (hours):
 
Tides and Currents Weather Stations Pressure Air Temp Water Temp Dewpoint Dewpoint Depression Visibility Wind Speed Wind Dir Waves Ship Positions

Arklow Rogue

Last reported at 2017-Apr-28 09:44 UTC. Time now 2017-Apr-29 07:26 UTC.
Position N 66°49' E 013°56'.

Length 90 m; draft 3.4 m.

Type: Cargo ship. MMSI: 250000960.

Date/timePositionNaut miles runAvg speedWind from/ knotsBaromVisibWave heightAir tempDewpointWater temp
2017-Apr-28 09:44N 66°49' E 013°56'1 2.7
2017-Apr-28 09:29N 66°48' E 013°55'511.2
2017-Apr-28 09:00N 66°49' E 013°41'612.2
2017-Apr-28 08:30N 66°49' E 013°27'612.0
2017-Apr-28 08:00N 66°45' E 013°13'612.6
2017-Apr-28 07:30N 66°40' E 013°07'612.4
2017-Apr-28 07:00N 66°33' E 013°04'510.1
2017-Apr-28 06:30N 66°29' E 012°59'612.5
2017-Apr-28 06:01N 66°23' E 012°58'611.5
2017-Apr-28 05:30N 66°19' E 012°47'612.4
2017-Apr-28 05:00N 66°16' E 012°34'5 9.0
2017-Apr-28 04:30N 66°16' E 012°23'611.3
2017-Apr-28 04:01N 66°17' E 012°09'4 7.8
2017-Apr-28 03:31N 66°16' E 011°60'510.1
2017-Apr-28 03:00N 66°16' E 011°47'4 7.3
2017-Apr-28 02:30N 66°15' E 011°38'5 5.2
2017-Apr-28 01:30N 66°19' E 011°30'2 0.4
2017-Apr-27 21:00N 66°20' E 011°26'4 8.9
2017-Apr-27 20:31N 66°24' E 011°33'4 9.0
2017-Apr-27 20:01N 66°27' E 011°39'1 1.1
2017-Apr-27 19:31N 66°28' E 011°39'4 7.8
2017-Apr-27 19:01N 66°25' E 011°33'5 7.8
2017-Apr-27 18:20N 66°21' E 011°26'25810.2
2017-Apr-26 17:04N 62°50' E 005°39'111.6
2017-Apr-26 17:01N 62°50' E 005°39'611.7
2017-Apr-26 16:30N 62°45' E 005°30'611.6
2017-Apr-26 16:00N 62°41' E 005°22'611.3
2017-Apr-26 15:31N 62°37' E 005°14'611.4
2017-Apr-26 15:00N 62°32' E 005°06'611.2
2017-Apr-26 14:30N 62°27' E 004°59'1111.4
2017-Apr-26 13:30N 62°18' E 004°44'611.3
2017-Apr-26 13:00N 62°14' E 004°37'611.3
2017-Apr-26 12:31N 62°10' E 004°29'66 9.4
2017-Apr-26 05:28N 61°04' E 004°15'4 8.6
2017-Apr-26 05:00N 60°60' E 004°15'43 7.8
2017-Apr-25 23:32N 60°18' E 004°27'0 9.4
2017-Apr-25 23:30N 60°17' E 004°28'5 8.9
2017-Apr-25 23:00N 60°15' E 004°36'5 9.2
2017-Apr-25 22:30N 60°13' E 004°43'4 9.1
2017-Apr-25 22:01N 60°10' E 004°51'5 9.8
2017-Apr-25 21:30N 60°09' E 005°00'612.3
2017-Apr-25 21:00N 60°10' E 005°12'612.6
2017-Apr-25 20:30N 60°07' E 005°23'612.9
2017-Apr-25 20:00N 60°06' E 005°36'5 9.9
2017-Apr-25 19:30N 60°02' E 005°43'5 9.8
2017-Apr-25 19:01N 59°59' E 005°49'713.3
2017-Apr-25 18:30N 60°03' E 005°59'713.1
2017-Apr-25 18:01N 60°09' E 006°05'612.4
2017-Apr-25 17:30N 60°15' E 006°10'713.4
2017-Apr-25 17:00N 60°21' E 006°17'713.3
2017-Apr-25 16:29N 60°25' E 006°28'611.5
2017-Apr-25 16:00N 60°25' E 006°39'611.3
2017-Apr-25 15:30N 60°19' E 006°38'612.3
2017-Apr-25 15:00N 60°13' E 006°35'612.4
2017-Apr-25 14:30N 60°07' E 006°33'2 2.2
2017-Apr-25 13:30N 60°05' E 006°32'0 0.0
2017-Apr-25 12:59N 60°05' E 006°32'0 0.0
2017-Apr-25 12:30N 60°05' E 006°32'0 0.0
2017-Apr-25 12:00N 60°05' E 006°32'0 0.0
2017-Apr-25 11:30N 60°05' E 006°32'0 0.0
2017-Apr-25 11:00N 60°05' E 006°32'0 0.0
2017-Apr-25 10:30N 60°05' E 006°32'0 0.0
2017-Apr-25 10:00N 60°05' E 006°32'0 0.0
2017-Apr-25 09:30N 60°05' E 006°32'0 0.0
2017-Apr-25 09:00N 60°05' E 006°32'0 0.0
2017-Apr-25 08:30N 60°05' E 006°32'0 0.0
2017-Apr-25 08:00N 60°05' E 006°32'0 0.0
2017-Apr-25 07:30N 60°05' E 006°32'0 0.0
2017-Apr-25 07:00N 60°05' E 006°32'0 0.0
2017-Apr-25 06:30N 60°05' E 006°32'0 0.0
2017-Apr-25 06:00N 60°05' E 006°32'0 0.0
2017-Apr-25 05:30N 60°05' E 006°32'0 0.0
2017-Apr-25 05:00N 60°05' E 006°32'0 0.0
2017-Apr-25 04:30N 60°05' E 006°32'0 0.0
2017-Apr-25 04:00N 60°05' E 006°32'0 0.0
2017-Apr-25 03:30N 60°05' E 006°32'0 0.0
2017-Apr-25 03:00N 60°05' E 006°32'0 0.0
2017-Apr-25 02:30N 60°05' E 006°32'0 0.0
2017-Apr-25 02:00N 60°05' E 006°32'0 0.0
2017-Apr-25 01:30N 60°05' E 006°32'0 0.0
2017-Apr-25 01:00N 60°05' E 006°32'0 0.0
2017-Apr-25 00:30N 60°05' E 006°32'0 0.0
2017-Apr-25 00:00N 60°05' E 006°32'0 0.0
2017-Apr-24 23:30N 60°05' E 006°32'0 0.0
2017-Apr-24 23:00N 60°05' E 006°32'0 0.0
2017-Apr-24 22:30N 60°05' E 006°32'0 0.0
2017-Apr-24 22:00N 60°05' E 006°32'0 0.0
2017-Apr-24 21:30N 60°05' E 006°32'0 0.0
2017-Apr-24 21:00N 60°05' E 006°32'0 0.0
2017-Apr-24 20:30N 60°05' E 006°32'0 0.0
2017-Apr-24 20:00N 60°05' E 006°32'0 0.0
2017-Apr-24 19:30N 60°05' E 006°32'0 0.0
2017-Apr-24 19:00N 60°05' E 006°32'0 0.0
2017-Apr-24 18:30N 60°05' E 006°32'0 0.0
2017-Apr-24 18:00N 60°05' E 006°32'0 0.0
2017-Apr-24 17:30N 60°05' E 006°32'0 0.0
2017-Apr-24 17:00N 60°05' E 006°32'0 0.0
2017-Apr-24 16:30N 60°05' E 006°32'0 0.0
2017-Apr-24 16:00N 60°05' E 006°32'0 0.0
2017-Apr-24 15:30N 60°05' E 006°32'0 0.0
2017-Apr-24 14:58N 60°05' E 006°32'0 0.0
2017-Apr-24 14:28N 60°05' E 006°32'0 0.0
2017-Apr-24 13:28N 60°05' E 006°32'0 0.0
2017-Apr-24 12:58N 60°05' E 006°32'0 0.0
2017-Apr-24 12:28N 60°05' E 006°32'0 0.0
2017-Apr-24 11:58N 60°05' E 006°32'0 0.0
2017-Apr-24 11:28N 60°05' E 006°32'0 0.0
2017-Apr-24 10:58N 60°05' E 006°32'0 0.0
2017-Apr-24 10:28N 60°05' E 006°32'0 0.0
2017-Apr-24 09:58N 60°05' E 006°32'0 0.0
2017-Apr-24 09:28N 60°05' E 006°32'0 0.0
2017-Apr-24 08:58N 60°05' E 006°32'0 0.0
2017-Apr-24 08:28N 60°05' E 006°32'0 0.0
2017-Apr-24 07:58N 60°05' E 006°32'0 0.0
2017-Apr-24 07:28N 60°05' E 006°32'0 0.0
2017-Apr-24 06:58N 60°05' E 006°32'0 0.0
2017-Apr-24 06:28N 60°05' E 006°32'0 0.0
2017-Apr-24 05:58N 60°05' E 006°32'0 0.0
2017-Apr-24 05:28N 60°05' E 006°32'0 0.0
2017-Apr-24 04:58N 60°05' E 006°32'0 0.0
2017-Apr-24 04:28N 60°05' E 006°32'0 0.0
2017-Apr-24 03:58N 60°05' E 006°32'0 0.0
2017-Apr-24 03:28N 60°05' E 006°32'0 0.0
2017-Apr-24 02:58N 60°05' E 006°32'0 0.0
2017-Apr-24 02:28N 60°05' E 006°32'0 0.0
2017-Apr-24 01:58N 60°05' E 006°32'0 0.0
2017-Apr-24 01:28N 60°05' E 006°32'0 0.0
2017-Apr-24 00:58N 60°05' E 006°32'0 0.0
2017-Apr-24 00:28N 60°05' E 006°32'0 0.0
2017-Apr-24 00:00N 60°05' E 006°32'2 4.0
2017-Apr-23 23:30N 60°07' E 006°33'611.3
2017-Apr-23 22:59N 60°13' E 006°35'511.2
2017-Apr-23 22:30N 60°18' E 006°37'611.5
2017-Apr-23 22:00N 60°24' E 006°40'5 9.3
2017-Apr-23 21:30N 60°26' E 006°33'611.2
2017-Apr-23 21:00N 60°23' E 006°23'611.4
2017-Apr-23 20:30N 60°19' E 006°15'611.7
2017-Apr-23 20:00N 60°14' E 006°09'611.0
2017-Apr-23 19:30N 60°09' E 006°04'611.6
2017-Apr-23 19:00N 60°04' E 006°00'611.7
2017-Apr-23 18:30N 59°60' E 005°52'5 9.1
2017-Apr-23 18:00N 59°60' E 005°43'510.5
2017-Apr-23 17:30N 60°05' E 005°41'611.3
2017-Apr-23 17:00N 60°06' E 005°30'511.0
2017-Apr-23 16:30N 60°08' E 005°20'510.6
2017-Apr-23 16:00N 60°10' E 005°11'510.4
2017-Apr-23 15:30N 60°09' E 005°01'611.1
2017-Apr-23 15:00N 60°06' E 004°51'611.3
2017-Apr-23 14:30N 60°04' E 004°41'23910.1
2017-Apr-22 14:43N 58°45' W 002°43'810.6
2017-Apr-22 14:00N 58°43' W 002°57'4 8.9
2017-Apr-22 13:30N 58°43' W 003°05'4 7.1
2017-Apr-22 12:55N 58°43' W 003°13'3 7.5
2017-Apr-22 12:27N 58°43' W 003°20'4 8.9
2017-Apr-22 12:01N 58°43' W 003°28'5 9.2
2017-Apr-22 11:30N 58°42' W 003°37'510.0
2017-Apr-22 11:00N 58°42' W 003°46'510.0
2017-Apr-22 10:30N 58°42' W 003°56'510.1
2017-Apr-22 10:00N 58°42' W 004°06'510.0
2017-Apr-22 09:30N 58°41' W 004°15'187 8.8
2017-Apr-21 12:14N 55°55' W 006°51'2 9.8
2017-Apr-21 12:00N 55°53' W 006°49'5 9.9
2017-Apr-21 11:30N 55°49' W 006°44'510.7
2017-Apr-21 11:00N 55°44' W 006°39'611.2
2017-Apr-21 10:30N 55°40' W 006°34'611.2
2017-Apr-21 10:00N 55°35' W 006°27'611.7
2017-Apr-21 09:30N 55°31' W 006°21'611.6
2017-Apr-21 09:00N 55°27' W 006°14'611.4
2017-Apr-21 08:30N 55°25' W 006°04'611.1
2017-Apr-21 08:00N 55°21' W 005°58'611.3
2017-Apr-21 07:30N 55°16' W 005°52'611.2
2017-Apr-21 07:00N 55°11' W 005°48'510.8
2017-Apr-21 06:30N 55°06' W 005°44'510.7
2017-Apr-21 06:00N 55°01' W 005°40'510.6
2017-Apr-21 05:30N 54°57' W 005°36'510.3
2017-Apr-21 05:00N 54°52' W 005°32'510.0
2017-Apr-21 04:31N 54°48' W 005°28'510.0
2017-Apr-21 04:01N 54°43' W 005°25'5 9.9
2017-Apr-21 03:31N 54°38' W 005°23'510.2
2017-Apr-21 03:01N 54°33' W 005°21'510.6
2017-Apr-21 02:30N 54°28' W 005°20'510.4
2017-Apr-21 02:01N 54°23' W 005°20'611.1
2017-Apr-21 01:30N 54°17' W 005°23'611.3
2017-Apr-21 01:00N 54°12' W 005°27'611.2
2017-Apr-21 00:30N 54°07' W 005°31'611.2
2017-Apr-20 23:56N 54°01' W 005°34'711.1
2017-Apr-20 23:20N 53°55' W 005°38'1711.0
2017-Apr-20 21:45N 53°39' W 005°49'310.9
2017-Apr-20 21:28N 53°36' W 005°51'510.8
2017-Apr-20 20:59N 53°31' W 005°54'510.5
2017-Apr-20 20:30N 53°26' W 005°57'510.2
2017-Apr-20 20:00N 53°22' W 006°01'5 9.0
2017-Apr-20 19:30N 53°21' W 006°08'3 5.7
2017-Apr-20 19:00N 53°21' W 006°13'0 0.0
2017-Apr-20 18:30N 53°21' W 006°13'0 0.0
2017-Apr-20 18:00N 53°21' W 006°13'0 0.0
2017-Apr-20 17:30N 53°21' W 006°13'0 0.0
2017-Apr-20 17:00N 53°21' W 006°13'0 0.1
2017-Apr-20 16:30N 53°21' W 006°13'0 0.1
2017-Apr-20 16:00N 53°21' W 006°13'0 0.0
2017-Apr-20 15:30N 53°21' W 006°13'0 0.0
2017-Apr-20 15:00N 53°21' W 006°13'0 0.0
2017-Apr-20 14:30N 53°21' W 006°13'0 0.2
2017-Apr-20 13:30N 53°21' W 006°13'0 0.0
2017-Apr-20 13:00N 53°21' W 006°13'0 0.0
2017-Apr-20 12:30N 53°21' W 006°13'0 0.0
2017-Apr-20 11:59N 53°21' W 006°13'0 0.0
2017-Apr-20 11:30N 53°21' W 006°13'0 0.0
2017-Apr-20 11:00N 53°21' W 006°13'0 0.0
2017-Apr-20 10:30N 53°21' W 006°13'0 0.0
2017-Apr-20 10:00N 53°21' W 006°13'0 0.0
2017-Apr-20 09:30N 53°21' W 006°13'0 0.0
2017-Apr-20 09:00N 53°21' W 006°13'0 0.0
2017-Apr-20 08:30N 53°21' W 006°13'0 0.0
2017-Apr-20 08:00N 53°21' W 006°13'0 0.0
2017-Apr-20 07:30N 53°21' W 006°13'0 0.0
2017-Apr-20 07:00N 53°21' W 006°13'0 0.0
2017-Apr-20 06:30N 53°21' W 006°13'0 0.0
2017-Apr-20 06:00N 53°21' W 006°13'0 0.0
2017-Apr-20 05:30N 53°21' W 006°13'0 0.0
2017-Apr-20 05:00N 53°21' W 006°13'0 0.0
2017-Apr-20 04:30N 53°21' W 006°13'0 0.0
2017-Apr-20 04:00N 53°21' W 006°13'0 0.0
2017-Apr-20 03:30N 53°21' W 006°13'0 0.0
2017-Apr-20 03:00N 53°21' W 006°13'0 0.0
2017-Apr-20 02:30N 53°21' W 006°13'0 0.0
2017-Apr-20 02:00N 53°21' W 006°13'0 0.0
2017-Apr-20 01:31N 53°21' W 006°13'0 0.0
2017-Apr-20 01:00N 53°21' W 006°13'0 0.0
2017-Apr-20 00:30N 53°21' W 006°13'0 0.0
2017-Apr-20 00:00N 53°21' W 006°13'0 0.0
2017-Apr-19 23:30N 53°21' W 006°13'0 0.0
2017-Apr-19 20:24N 53°21' W 006°13'0 0.0
2017-Apr-19 19:59N 53°21' W 006°13'0 0.0
2017-Apr-19 19:24N 53°21' W 006°13'0 0.0
2017-Apr-19 18:59N 53°21' W 006°13'0 0.0
2017-Apr-19 18:27N 53°21' W 006°13'0 0.0
2017-Apr-19 17:51N 53°21' W 006°13'0 0.0
2017-Apr-19 17:30N 53°21' W 006°13'0 0.0
2017-Apr-19 17:00N 53°21' W 006°13'0 0.0
2017-Apr-19 16:29N 53°21' W 006°13'0 0.0
2017-Apr-19 16:00N 53°21' W 006°13'0 0.0
2017-Apr-19 15:30N 53°21' W 006°13'0 0.0
2017-Apr-19 14:59N 53°21' W 006°13'0 0.0
2017-Apr-19 14:30N 53°21' W 006°13'0 0.0
2017-Apr-19 13:30N 53°21' W 006°13'0 0.0
2017-Apr-19 12:59N 53°21' W 006°13'0 0.0
2017-Apr-19 12:27N 53°21' W 006°13'0 0.0
2017-Apr-19 12:00N 53°21' W 006°13'0 0.0
2017-Apr-19 11:30N 53°21' W 006°13'0 0.0
2017-Apr-19 10:46N 53°21' W 006°13'0 0.0
2017-Apr-19 10:27N 53°21' W 006°13'0 0.0
2017-Apr-19 10:00N 53°21' W 006°13'0 0.0
2017-Apr-19 09:30N 53°21' W 006°13'0 0.0
2017-Apr-19 09:00N 53°21' W 006°13'0 0.1
2017-Apr-19 08:30N 53°21' W 006°13'2 3.5
2017-Apr-19 08:00N 53°21' W 006°10'4 8.5
2017-Apr-19 07:29N 53°21' W 006°03'610.0
2017-Apr-19 06:53N 53°23' W 005°53'3 7.1
2017-Apr-19 06:30N 53°23' W 005°49'4 8.6
2017-Apr-19 05:59N 53°24' W 005°42'5 9.8
2017-Apr-19 05:30N 53°26' W 005°34'24 9.9
2017-Apr-19 03:06N 53°33' W 004°56'1 9.1
2017-Apr-19 03:00N 53°33' W 004°55'28 8.4
2017-Apr-18 23:38N 53°35' W 004°07'1 9.1
2017-Apr-18 23:29N 53°35' W 004°05'5 9.4
2017-Apr-18 23:00N 53°34' W 003°57'5 9.9
2017-Apr-18 22:30N 53°34' W 003°49'510.3
2017-Apr-18 22:00N 53°33' W 003°40'511.0
2017-Apr-18 21:30N 53°33' W 003°31'611.2
2017-Apr-18 21:00N 53°33' W 003°21'510.3
2017-Apr-18 20:30N 53°31' W 003°13'611.3
2017-Apr-18 20:00N 53°29' W 003°04'3 5.3
2017-Apr-18 19:30N 53°27' W 003°01'0 0.3
2017-Apr-18 19:00N 53°27' W 003°01'0 0.3
2017-Apr-18 18:28N 53°27' W 003°01'0 0.0
2017-Apr-18 17:58N 53°27' W 003°01'0 0.0
2017-Apr-18 17:22N 53°27' W 003°01'0 0.0
2017-Apr-18 16:58N 53°27' W 003°01'0 0.0
2017-Apr-18 16:19N 53°27' W 003°01'0 0.0
2017-Apr-18 15:58N 53°27' W 003°01'0 0.0
2017-Apr-18 15:25N 53°27' W 003°01'0 0.0
2017-Apr-18 14:58N 53°27' W 003°01'0 0.0
2017-Apr-18 14:22N 53°27' W 003°01'0 0.0
2017-Apr-18 13:25N 53°27' W 003°01'0 0.0
2017-Apr-18 12:58N 53°27' W 003°01'0 0.0
2017-Apr-18 12:25N 53°27' W 003°01'0 0.0
2017-Apr-18 11:58N 53°27' W 003°01'0 0.0
2017-Apr-18 11:22N 53°27' W 003°01'0 0.0
2017-Apr-18 10:58N 53°27' W 003°01'0 0.0
2017-Apr-18 10:28N 53°27' W 003°01'0 0.0
2017-Apr-18 09:55N 53°27' W 003°01'  
Track history (hours):
 
Tides and Currents Weather Stations Pressure Air Temp Water Temp Dewpoint Dewpoint Depression Visibility Wind Speed Wind Dir Waves Ship Positions

Arklow Rogue

Last reported at 2017-Apr-28 09:44 UTC. Time now 2017-Apr-29 07:26 UTC.
Position N 66°49' E 013°56'.

Length 90 m; draft 3.4 m.

Type: Cargo ship. MMSI: 250000960.

Date/timePositionNaut miles runAvg speedWind from/ knotsBaromVisibWave heightAir tempDewpointWater temp
2017-Apr-28 09:44N 66°49' E 013°56'1 2.7
2017-Apr-28 09:29N 66°48' E 013°55'511.2
2017-Apr-28 09:00N 66°49' E 013°41'612.2
2017-Apr-28 08:30N 66°49' E 013°27'612.0
2017-Apr-28 08:00N 66°45' E 013°13'612.6
2017-Apr-28 07:30N 66°40' E 013°07'612.4
2017-Apr-28 07:00N 66°33' E 013°04'510.1
2017-Apr-28 06:30N 66°29' E 012°59'612.5
2017-Apr-28 06:01N 66°23' E 012°58'611.5
2017-Apr-28 05:30N 66°19' E 012°47'612.4
2017-Apr-28 05:00N 66°16' E 012°34'5 9.0
2017-Apr-28 04:30N 66°16' E 012°23'611.3
2017-Apr-28 04:01N 66°17' E 012°09'4 7.8
2017-Apr-28 03:31N 66°16' E 011°60'510.1
2017-Apr-28 03:00N 66°16' E 011°47'4 7.3
2017-Apr-28 02:30N 66°15' E 011°38'5 5.2
2017-Apr-28 01:30N 66°19' E 011°30'2 0.4
2017-Apr-27 21:00N 66°20' E 011°26'4 8.9
2017-Apr-27 20:31N 66°24' E 011°33'4 9.0
2017-Apr-27 20:01N 66°27' E 011°39'1 1.1
2017-Apr-27 19:31N 66°28' E 011°39'4 7.8
2017-Apr-27 19:01N 66°25' E 011°33'5 7.8
2017-Apr-27 18:20N 66°21' E 011°26'25810.2
2017-Apr-26 17:04N 62°50' E 005°39'111.6
2017-Apr-26 17:01N 62°50' E 005°39'611.7
2017-Apr-26 16:30N 62°45' E 005°30'611.6
2017-Apr-26 16:00N 62°41' E 005°22'611.3
2017-Apr-26 15:31N 62°37' E 005°14'611.4
2017-Apr-26 15:00N 62°32' E 005°06'611.2
2017-Apr-26 14:30N 62°27' E 004°59'1111.4
2017-Apr-26 13:30N 62°18' E 004°44'611.3
2017-Apr-26 13:00N 62°14' E 004°37'611.3
2017-Apr-26 12:31N 62°10' E 004°29'66 9.4
2017-Apr-26 05:28N 61°04' E 004°15'4 8.6
2017-Apr-26 05:00N 60°60' E 004°15'43 7.8
2017-Apr-25 23:32N 60°18' E 004°27'0 9.4
2017-Apr-25 23:30N 60°17' E 004°28'5 8.9
2017-Apr-25 23:00N 60°15' E 004°36'5 9.2
2017-Apr-25 22:30N 60°13' E 004°43'4 9.1
2017-Apr-25 22:01N 60°10' E 004°51'5 9.8
2017-Apr-25 21:30N 60°09' E 005°00'612.3
2017-Apr-25 21:00N 60°10' E 005°12'612.6
2017-Apr-25 20:30N 60°07' E 005°23'612.9
2017-Apr-25 20:00N 60°06' E 005°36'5 9.9
2017-Apr-25 19:30N 60°02' E 005°43'5 9.8
2017-Apr-25 19:01N 59°59' E 005°49'713.3
2017-Apr-25 18:30N 60°03' E 005°59'713.1
2017-Apr-25 18:01N 60°09' E 006°05'612.4
2017-Apr-25 17:30N 60°15' E 006°10'713.4
2017-Apr-25 17:00N 60°21' E 006°17'713.3
2017-Apr-25 16:29N 60°25' E 006°28'611.5
2017-Apr-25 16:00N 60°25' E 006°39'611.3
2017-Apr-25 15:30N 60°19' E 006°38'612.3
2017-Apr-25 15:00N 60°13' E 006°35'612.4
2017-Apr-25 14:30N 60°07' E 006°33'2 2.2
2017-Apr-25 13:30N 60°05' E 006°32'0 0.0
2017-Apr-25 12:59N 60°05' E 006°32'0 0.0
2017-Apr-25 12:30N 60°05' E 006°32'0 0.0
2017-Apr-25 12:00N 60°05' E 006°32'0 0.0
2017-Apr-25 11:30N 60°05' E 006°32'0 0.0
2017-Apr-25 11:00N 60°05' E 006°32'0 0.0
2017-Apr-25 10:30N 60°05' E 006°32'0 0.0
2017-Apr-25 10:00N 60°05' E 006°32'0 0.0
2017-Apr-25 09:30N 60°05' E 006°32'0 0.0
2017-Apr-25 09:00N 60°05' E 006°32'0 0.0
2017-Apr-25 08:30N 60°05' E 006°32'0 0.0
2017-Apr-25 08:00N 60°05' E 006°32'0 0.0
2017-Apr-25 07:30N 60°05' E 006°32'0 0.0
2017-Apr-25 07:00N 60°05' E 006°32'0 0.0
2017-Apr-25 06:30N 60°05' E 006°32'0 0.0
2017-Apr-25 06:00N 60°05' E 006°32'0 0.0
2017-Apr-25 05:30N 60°05' E 006°32'0 0.0
2017-Apr-25 05:00N 60°05' E 006°32'0 0.0
2017-Apr-25 04:30N 60°05' E 006°32'0 0.0
2017-Apr-25 04:00N 60°05' E 006°32'0 0.0
2017-Apr-25 03:30N 60°05' E 006°32'0 0.0
2017-Apr-25 03:00N 60°05' E 006°32'0 0.0
2017-Apr-25 02:30N 60°05' E 006°32'0 0.0
2017-Apr-25 02:00N 60°05' E 006°32'0 0.0
2017-Apr-25 01:30N 60°05' E 006°32'0 0.0
2017-Apr-25 01:00N 60°05' E 006°32'0 0.0
2017-Apr-25 00:30N 60°05' E 006°32'0 0.0
2017-Apr-25 00:00N 60°05' E 006°32'0 0.0
2017-Apr-24 23:30N 60°05' E 006°32'0 0.0
2017-Apr-24 23:00N 60°05' E 006°32'0 0.0
2017-Apr-24 22:30N 60°05' E 006°32'0 0.0
2017-Apr-24 22:00N 60°05' E 006°32'0 0.0
2017-Apr-24 21:30N 60°05' E 006°32'0 0.0
2017-Apr-24 21:00N 60°05' E 006°32'0 0.0
2017-Apr-24 20:30N 60°05' E 006°32'0 0.0
2017-Apr-24 20:00N 60°05' E 006°32'0 0.0
2017-Apr-24 19:30N 60°05' E 006°32'0 0.0
2017-Apr-24 19:00N 60°05' E 006°32'0 0.0
2017-Apr-24 18:30N 60°05' E 006°32'0 0.0
2017-Apr-24 18:00N 60°05' E 006°32'0 0.0
2017-Apr-24 17:30N 60°05' E 006°32'0 0.0
2017-Apr-24 17:00N 60°05' E 006°32'0 0.0
2017-Apr-24 16:30N 60°05' E 006°32'0 0.0
2017-Apr-24 16:00N 60°05' E 006°32'0 0.0
2017-Apr-24 15:30N 60°05' E 006°32'0 0.0
2017-Apr-24 14:58N 60°05' E 006°32'0 0.0
2017-Apr-24 14:28N 60°05' E 006°32'0 0.0
2017-Apr-24 13:28N 60°05' E 006°32'0 0.0
2017-Apr-24 12:58N 60°05' E 006°32'0 0.0
2017-Apr-24 12:28N 60°05' E 006°32'0 0.0
2017-Apr-24 11:58N 60°05' E 006°32'0 0.0
2017-Apr-24 11:28N 60°05' E 006°32'0 0.0
2017-Apr-24 10:58N 60°05' E 006°32'0 0.0
2017-Apr-24 10:28N 60°05' E 006°32'0 0.0
2017-Apr-24 09:58N 60°05' E 006°32'0 0.0
2017-Apr-24 09:28N 60°05' E 006°32'0 0.0
2017-Apr-24 08:58N 60°05' E 006°32'0 0.0
2017-Apr-24 08:28N 60°05' E 006°32'0 0.0
2017-Apr-24 07:58N 60°05' E 006°32'0 0.0
2017-Apr-24 07:28N 60°05' E 006°32'0 0.0
2017-Apr-24 06:58N 60°05' E 006°32'0 0.0
2017-Apr-24 06:28N 60°05' E 006°32'0 0.0
2017-Apr-24 05:58N 60°05' E 006°32'0 0.0
2017-Apr-24 05:28N 60°05' E 006°32'0 0.0
2017-Apr-24 04:58N 60°05' E 006°32'0 0.0
2017-Apr-24 04:28N 60°05' E 006°32'0 0.0
2017-Apr-24 03:58N 60°05' E 006°32'0 0.0
2017-Apr-24 03:28N 60°05' E 006°32'0 0.0
2017-Apr-24 02:58N 60°05' E 006°32'0 0.0
2017-Apr-24 02:28N 60°05' E 006°32'0 0.0
2017-Apr-24 01:58N 60°05' E 006°32'0 0.0
2017-Apr-24 01:28N 60°05' E 006°32'0 0.0
2017-Apr-24 00:58N 60°05' E 006°32'0 0.0
2017-Apr-24 00:28N 60°05' E 006°32'0 0.0
2017-Apr-24 00:00N 60°05' E 006°32'2 4.0
2017-Apr-23 23:30N 60°07' E 006°33'611.3
2017-Apr-23 22:59N 60°13' E 006°35'511.2
2017-Apr-23 22:30N 60°18' E 006°37'611.5
2017-Apr-23 22:00N 60°24' E 006°40'5 9.3
2017-Apr-23 21:30N 60°26' E 006°33'611.2
2017-Apr-23 21:00N 60°23' E 006°23'611.4
2017-Apr-23 20:30N 60°19' E 006°15'611.7
2017-Apr-23 20:00N 60°14' E 006°09'611.0
2017-Apr-23 19:30N 60°09' E 006°04'611.6
2017-Apr-23 19:00N 60°04' E 006°00'611.7
2017-Apr-23 18:30N 59°60' E 005°52'5 9.1
2017-Apr-23 18:00N 59°60' E 005°43'510.5
2017-Apr-23 17:30N 60°05' E 005°41'611.3
2017-Apr-23 17:00N 60°06' E 005°30'511.0
2017-Apr-23 16:30N 60°08' E 005°20'510.6
2017-Apr-23 16:00N 60°10' E 005°11'510.4
2017-Apr-23 15:30N 60°09' E 005°01'611.1
2017-Apr-23 15:00N 60°06' E 004°51'611.3
2017-Apr-23 14:30N 60°04' E 004°41'23910.1
2017-Apr-22 14:43N 58°45' W 002°43'810.6
2017-Apr-22 14:00N 58°43' W 002°57'4 8.9
2017-Apr-22 13:30N 58°43' W 003°05'4 7.1
2017-Apr-22 12:55N 58°43' W 003°13'3 7.5
2017-Apr-22 12:27N 58°43' W 003°20'4 8.9
2017-Apr-22 12:01N 58°43' W 003°28'5 9.2
2017-Apr-22 11:30N 58°42' W 003°37'510.0
2017-Apr-22 11:00N 58°42' W 003°46'510.0
2017-Apr-22 10:30N 58°42' W 003°56'510.1
2017-Apr-22 10:00N 58°42' W 004°06'510.0
2017-Apr-22 09:30N 58°41' W 004°15'187 8.8
2017-Apr-21 12:14N 55°55' W 006°51'2 9.8
2017-Apr-21 12:00N 55°53' W 006°49'5 9.9
2017-Apr-21 11:30N 55°49' W 006°44'510.7
2017-Apr-21 11:00N 55°44' W 006°39'611.2
2017-Apr-21 10:30N 55°40' W 006°34'611.2
2017-Apr-21 10:00N 55°35' W 006°27'611.7
2017-Apr-21 09:30N 55°31' W 006°21'611.6
2017-Apr-21 09:00N 55°27' W 006°14'611.4
2017-Apr-21 08:30N 55°25' W 006°04'611.1
2017-Apr-21 08:00N 55°21' W 005°58'611.3
2017-Apr-21 07:30N 55°16' W 005°52'611.2
2017-Apr-21 07:00N 55°11' W 005°48'510.8
2017-Apr-21 06:30N 55°06' W 005°44'510.7
2017-Apr-21 06:00N 55°01' W 005°40'510.6
2017-Apr-21 05:30N 54°57' W 005°36'510.3
2017-Apr-21 05:00N 54°52' W 005°32'510.0
2017-Apr-21 04:31N 54°48' W 005°28'510.0
2017-Apr-21 04:01N 54°43' W 005°25'5 9.9
2017-Apr-21 03:31N 54°38' W 005°23'510.2
2017-Apr-21 03:01N 54°33' W 005°21'510.6
2017-Apr-21 02:30N 54°28' W 005°20'510.4
2017-Apr-21 02:01N 54°23' W 005°20'611.1
2017-Apr-21 01:30N 54°17' W 005°23'611.3
2017-Apr-21 01:00N 54°12' W 005°27'611.2
2017-Apr-21 00:30N 54°07' W 005°31'611.2
2017-Apr-20 23:56N 54°01' W 005°34'711.1
2017-Apr-20 23:20N 53°55' W 005°38'1711.0
2017-Apr-20 21:45N 53°39' W 005°49'310.9
2017-Apr-20 21:28N 53°36' W 005°51'510.8
2017-Apr-20 20:59N 53°31' W 005°54'510.5
2017-Apr-20 20:30N 53°26' W 005°57'510.2
2017-Apr-20 20:00N 53°22' W 006°01'5 9.0
2017-Apr-20 19:30N 53°21' W 006°08'3 5.7
2017-Apr-20 19:00N 53°21' W 006°13'0 0.0
2017-Apr-20 18:30N 53°21' W 006°13'0 0.0
2017-Apr-20 18:00N 53°21' W 006°13'0 0.0
2017-Apr-20 17:30N 53°21' W 006°13'0 0.0
2017-Apr-20 17:00N 53°21' W 006°13'0 0.1
2017-Apr-20 16:30N 53°21' W 006°13'0 0.1
2017-Apr-20 16:00N 53°21' W 006°13'0 0.0
2017-Apr-20 15:30N 53°21' W 006°13'0 0.0
2017-Apr-20 15:00N 53°21' W 006°13'0 0.0
2017-Apr-20 14:30N 53°21' W 006°13'0 0.2
2017-Apr-20 13:30N 53°21' W 006°13'0 0.0
2017-Apr-20 13:00N 53°21' W 006°13'0 0.0
2017-Apr-20 12:30N 53°21' W 006°13'0 0.0
2017-Apr-20 11:59N 53°21' W 006°13'0 0.0
2017-Apr-20 11:30N 53°21' W 006°13'0 0.0
2017-Apr-20 11:00N 53°21' W 006°13'0 0.0
2017-Apr-20 10:30N 53°21' W 006°13'0 0.0
2017-Apr-20 10:00N 53°21' W 006°13'0 0.0
2017-Apr-20 09:30N 53°21' W 006°13'0 0.0
2017-Apr-20 09:00N 53°21' W 006°13'0 0.0
2017-Apr-20 08:30N 53°21' W 006°13'0 0.0
2017-Apr-20 08:00N 53°21' W 006°13'0 0.0
2017-Apr-20 07:30N 53°21' W 006°13'0 0.0
2017-Apr-20 07:00N 53°21' W 006°13'0 0.0
2017-Apr-20 06:30N 53°21' W 006°13'0 0.0
2017-Apr-20 06:00N 53°21' W 006°13'0 0.0
2017-Apr-20 05:30N 53°21' W 006°13'0 0.0
2017-Apr-20 05:00N 53°21' W 006°13'0 0.0
2017-Apr-20 04:30N 53°21' W 006°13'0 0.0
2017-Apr-20 04:00N 53°21' W 006°13'0 0.0
2017-Apr-20 03:30N 53°21' W 006°13'0 0.0
2017-Apr-20 03:00N 53°21' W 006°13'0 0.0
2017-Apr-20 02:30N 53°21' W 006°13'0 0.0
2017-Apr-20 02:00N 53°21' W 006°13'0 0.0
2017-Apr-20 01:31N 53°21' W 006°13'0 0.0
2017-Apr-20 01:00N 53°21' W 006°13'0 0.0
2017-Apr-20 00:30N 53°21' W 006°13'0 0.0
2017-Apr-20 00:00N 53°21' W 006°13'0 0.0
2017-Apr-19 23:30N 53°21' W 006°13'0 0.0
2017-Apr-19 20:24N 53°21' W 006°13'0 0.0
2017-Apr-19 19:59N 53°21' W 006°13'0 0.0
2017-Apr-19 19:24N 53°21' W 006°13'0 0.0
2017-Apr-19 18:59N 53°21' W 006°13'0 0.0
2017-Apr-19 18:27N 53°21' W 006°13'0 0.0
2017-Apr-19 17:51N 53°21' W 006°13'0 0.0
2017-Apr-19 17:30N 53°21' W 006°13'0 0.0
2017-Apr-19 17:00N 53°21' W 006°13'0 0.0
2017-Apr-19 16:29N 53°21' W 006°13'0 0.0
2017-Apr-19 16:00N 53°21' W 006°13'0 0.0
2017-Apr-19 15:30N 53°21' W 006°13'0 0.0
2017-Apr-19 14:59N 53°21' W 006°13'0 0.0
2017-Apr-19 14:30N 53°21' W 006°13'0 0.0
2017-Apr-19 13:30N 53°21' W 006°13'0 0.0
2017-Apr-19 12:59N 53°21' W 006°13'0 0.0
2017-Apr-19 12:27N 53°21' W 006°13'0 0.0
2017-Apr-19 12:00N 53°21' W 006°13'0 0.0
2017-Apr-19 11:30N 53°21' W 006°13'0 0.0
2017-Apr-19 10:46N 53°21' W 006°13'0 0.0
2017-Apr-19 10:27N 53°21' W 006°13'0 0.0
2017-Apr-19 10:00N 53°21' W 006°13'0 0.0
2017-Apr-19 09:30N 53°21' W 006°13'0 0.0
2017-Apr-19 09:00N 53°21' W 006°13'0 0.1
2017-Apr-19 08:30N 53°21' W 006°13'2 3.5
2017-Apr-19 08:00N 53°21' W 006°10'4 8.5
2017-Apr-19 07:29N 53°21' W 006°03'610.0
2017-Apr-19 06:53N 53°23' W 005°53'3 7.1
2017-Apr-19 06:30N 53°23' W 005°49'4 8.6
2017-Apr-19 05:59N 53°24' W 005°42'5 9.8
2017-Apr-19 05:30N 53°26' W 005°34'24 9.9
2017-Apr-19 03:06N 53°33' W 004°56'1 9.1
2017-Apr-19 03:00N 53°33' W 004°55'28 8.4
2017-Apr-18 23:38N 53°35' W 004°07'1 9.1
2017-Apr-18 23:29N 53°35' W 004°05'5 9.4
2017-Apr-18 23:00N 53°34' W 003°57'5 9.9
2017-Apr-18 22:30N 53°34' W 003°49'510.3
2017-Apr-18 22:00N 53°33' W 003°40'511.0
2017-Apr-18 21:30N 53°33' W 003°31'611.2
2017-Apr-18 21:00N 53°33' W 003°21'510.3
2017-Apr-18 20:30N 53°31' W 003°13'611.3
2017-Apr-18 20:00N 53°29' W 003°04'3 5.3
2017-Apr-18 19:30N 53°27' W 003°01'0 0.3
2017-Apr-18 19:00N 53°27' W 003°01'0 0.3
2017-Apr-18 18:28N 53°27' W 003°01'0 0.0
2017-Apr-18 17:58N 53°27' W 003°01'0 0.0
2017-Apr-18 17:22N 53°27' W 003°01'0 0.0
2017-Apr-18 16:58N 53°27' W 003°01'0 0.0
2017-Apr-18 16:19N 53°27' W 003°01'0 0.0
2017-Apr-18 15:58N 53°27' W 003°01'0 0.0
2017-Apr-18 15:25N 53°27' W 003°01'0 0.0
2017-Apr-18 14:58N 53°27' W 003°01'0 0.0
2017-Apr-18 14:22N 53°27' W 003°01'0 0.0
2017-Apr-18 13:25N 53°27' W 003°01'0 0.0
2017-Apr-18 12:58N 53°27' W 003°01'0 0.0
2017-Apr-18 12:25N 53°27' W 003°01'0 0.0
2017-Apr-18 11:58N 53°27' W 003°01'0 0.0
2017-Apr-18 11:22N 53°27' W 003°01'0 0.0
2017-Apr-18 10:58N 53°27' W 003°01'0 0.0
2017-Apr-18 10:28N 53°27' W 003°01'0 0.0
2017-Apr-18 09:55N 53°27' W 003°01'  

Dump ship's entire track history